Time;durP1;ratioP1;P1;durP2;ratioP2;P2;SDS_P1;SDS_P2;PMS_P1;PMS_P2;Temp;Humidity;BMP_temperature;BMP_pressure;BME280_temperature;BME280_humidity;BME280_pressure;Samples;Min_cycle;Max_cycle;Signal;HPM_P1;HPM_P2
2022/08/30 00:01:27;;;;;;;7.80;3.15;;;17.30;99.90;;;;;;5069791;28;25108;-74
2022/08/30 00:03:55;;;;;;;7.28;3.45;;;17.40;99.90;;;;;;5076521;28;25075;-75
2022/08/30 00:06:22;;;;;;;8.73;4.20;;;17.30;99.90;;;;;;5068453;28;24844;-73
2022/08/30 00:08:48;;;;;;;8.13;2.78;;;17.40;99.90;;;;;;5069620;28;25098;-75
2022/08/30 00:11:17;;;;;;;7.50;2.80;;;17.40;99.90;;;;;;5060992;28;25076;-73
2022/08/30 00:13:44;;;;;;;11.30;3.33;;;17.30;99.90;;;;;;5068940;28;25077;-74
2022/08/30 00:16:11;;;;;;;11.25;3.70;;;17.20;99.90;;;;;;5057601;28;25081;-73
2022/08/30 00:18:38;;;;;;;9.98;3.30;;;17.20;99.90;;;;;;5063479;28;25053;-74
2022/08/30 00:21:04;;;;;;;4.60;3.25;;;17.20;99.90;;;;;;5064186;28;25059;-73
2022/08/30 00:23:31;;;;;;;6.93;3.42;;;17.20;99.90;;;;;;5060217;28;25166;-73
2022/08/30 00:25:57;;;;;;;6.03;3.38;;;17.30;99.90;;;;;;5049769;28;25061;-75
2022/08/30 00:28:22;;;;;;;6.10;3.58;;;17.20;99.90;;;;;;5065098;28;25062;-74
2022/08/30 00:30:48;;;;;;;6.85;4.07;;;17.20;99.90;;;;;;5062711;28;25193;-73
2022/08/30 00:33:14;;;;;;;7.95;3.45;;;17.10;99.90;;;;;;5068030;28;25081;-73
2022/08/30 00:35:42;;;;;;;7.13;3.50;;;17.20;99.90;;;;;;5068966;28;25107;-74
2022/08/30 00:38:09;;;;;;;9.75;5.18;;;17.20;99.90;;;;;;5064803;28;25069;-76
2022/08/30 00:40:36;;;;;;;6.13;3.40;;;17.20;99.90;;;;;;5064389;28;25145;-73
2022/08/30 00:43:05;;;;;;;5.63;3.70;;;17.30;99.90;;;;;;5054145;28;25072;-73
2022/08/30 00:45:34;;;;;;;12.98;4.60;;;17.20;99.90;;;;;;5050966;28;25144;-72
2022/08/30 00:48:00;;;;;;;7.47;4.18;;;17.10;99.90;;;;;;5049126;28;25073;-74
2022/08/30 00:50:42;;;;;;;9.57;4.40;;;17.10;99.90;;;;;;5047885;28;25079;-73
2022/08/30 00:53:12;;;;;;;8.25;4.07;;;17.10;99.90;;;;;;5059978;28;25131;-73
2022/08/30 00:55:40;;;;;;;6.70;4.03;;;17.20;99.90;;;;;;5076248;28;25060;-73
2022/08/30 00:58:09;;;;;;;6.63;3.65;;;17.20;99.90;;;;;;5056887;28;25076;-74
2022/08/30 01:00:35;;;;;;;8.63;4.00;;;17.20;99.90;;;;;;5065049;28;25073;-74
2022/08/30 01:03:00;;;;;;;16.08;4.55;;;17.20;99.90;;;;;;5066298;28;25046;-73
2022/08/30 01:05:26;;;;;;;9.55;3.92;;;17.10;99.90;;;;;;5071146;28;25069;-74
2022/08/30 01:07:51;;;;;;;6.60;3.78;;;17.10;99.90;;;;;;5089572;28;25077;-74
2022/08/30 01:10:17;;;;;;;7.68;4.00;;;17.10;99.90;;;;;;5081145;28;25074;-72
2022/08/30 01:12:44;;;;;;;5.20;3.85;;;17.00;99.90;;;;;;5080621;28;25058;-73
2022/08/30 01:15:13;;;;;;;6.75;4.15;;;17.10;99.90;;;;;;5087846;28;25070;-74
2022/08/30 01:17:40;;;;;;;6.82;3.95;;;17.20;99.90;;;;;;5084021;28;25051;-74
2022/08/30 01:20:11;;;;;;;7.38;4.15;;;17.10;99.90;;;;;;5060711;28;25085;-75
2022/08/30 01:22:47;;;;;;;6.10;4.28;;;17.10;99.90;;;;;;5051267;28;25105;-72
2022/08/30 01:25:16;;;;;;;6.97;4.43;;;17.10;99.90;;;;;;5060510;28;25063;-74
2022/08/30 01:27:48;;;;;;;14.25;4.80;;;17.10;99.90;;;;;;5061175;28;25072;-72
2022/08/30 01:30:13;;;;;;;9.23;4.40;;;17.10;99.90;;;;;;5062651;28;25046;-72
2022/08/30 01:32:42;;;;;;;7.85;4.97;;;17.10;99.90;;;;;;5056192;28;25160;-75
2022/08/30 01:35:10;;;;;;;6.45;4.38;;;17.10;99.90;;;;;;5064642;28;25040;-74
2022/08/30 01:37:36;;;;;;;6.82;4.22;;;17.10;99.90;;;;;;5058199;28;25167;-73
2022/08/30 01:40:03;;;;;;;7.15;4.30;;;17.20;99.90;;;;;;5063803;28;25142;-73
2022/08/30 01:42:29;;;;;;;7.75;4.43;;;17.10;99.90;;;;;;5065635;28;25059;-73
2022/08/30 01:44:54;;;;;;;8.85;4.38;;;17.00;99.90;;;;;;5057114;28;25049;-73
2022/08/30 01:47:20;;;;;;;7.32;4.95;;;17.10;99.90;;;;;;5056759;28;25192;-72
2022/08/30 01:49:46;;;;;;;7.43;3.97;;;17.20;99.90;;;;;;5060488;28;25062;-74
2022/08/30 01:52:14;;;;;;;7.00;4.38;;;17.20;99.90;;;;;;5065739;28;25069;-74
2022/08/30 01:54:42;;;;;;;8.30;4.70;;;17.00;99.90;;;;;;5068987;28;25067;-73
2022/08/30 01:57:10;;;;;;;9.75;4.60;;;17.00;99.90;;;;;;5061418;28;25058;-76
2022/08/30 01:59:37;;;;;;;7.25;4.82;;;17.00;99.90;;;;;;5060647;28;25089;-72
2022/08/30 02:02:03;;;;;;;10.90;5.20;;;17.00;99.90;;;;;;5067838;28;25075;-73
2022/08/30 02:04:29;;;;;;;7.93;5.55;;;17.00;99.90;;;;;;5066863;28;25070;-74
2022/08/30 02:06:55;;;;;;;7.15;4.65;;;17.00;99.90;;;;;;5062934;28;25073;-74
2022/08/30 02:09:20;;;;;;;10.75;5.25;;;17.00;99.90;;;;;;5056477;28;25046;-72
2022/08/30 02:11:47;;;;;;;8.52;5.22;;;17.00;99.90;;;;;;5059989;28;25106;-74
2022/08/30 02:14:13;;;;;;;10.10;4.93;;;17.10;99.90;;;;;;5058144;28;25053;-73
2022/08/30 02:16:39;;;;;;;12.15;5.45;;;17.00;99.90;;;;;;5060844;28;25129;-71
2022/08/30 02:19:05;;;;;;;12.20;5.72;;;17.00;99.90;;;;;;5066345;28;25068;-76
2022/08/30 02:21:31;;;;;;;6.57;4.78;;;17.00;99.90;;;;;;5065270;28;25052;-72
2022/08/30 02:23:57;;;;;;;10.25;4.38;;;17.00;99.90;;;;;;5076999;28;25077;-74
2022/08/30 02:26:23;;;;;;;8.55;5.30;;;17.00;99.90;;;;;;5075761;28;25099;-74
2022/08/30 02:28:49;;;;;;;6.75;4.90;;;17.10;99.90;;;;;;5077281;28;25072;-73
2022/08/30 02:31:15;;;;;;;9.02;5.35;;;17.00;99.90;;;;;;5077291;28;25099;-74
2022/08/30 02:33:41;;;;;;;10.25;5.95;;;17.00;99.90;;;;;;5066486;28;25072;-73
2022/08/30 02:36:07;;;;;;;10.02;6.10;;;17.00;99.90;;;;;;5062117;28;25069;-73
2022/08/30 02:38:33;;;;;;;9.15;5.82;;;17.10;99.90;;;;;;5070080;28;25083;-73
2022/08/30 02:40:58;;;;;;;8.25;5.80;;;17.00;99.90;;;;;;5068965;28;25086;-73
2022/08/30 02:43:25;;;;;;;7.38;5.63;;;17.00;99.90;;;;;;5066517;28;25078;-73
2022/08/30 02:45:51;;;;;;;12.40;6.93;;;17.10;99.90;;;;;;5048587;28;25060;-75
2022/08/30 02:48:17;;;;;;;7.55;5.68;;;17.00;99.90;;;;;;5058518;28;25065;-74
2022/08/30 02:50:45;;;;;;;9.82;5.75;;;17.10;99.90;;;;;;5061773;28;25128;-73
2022/08/30 02:53:11;;;;;;;9.95;6.45;;;17.10;99.90;;;;;;5057790;28;25107;-74
2022/08/30 02:55:36;;;;;;;11.63;6.93;;;17.00;99.90;;;;;;5064093;28;25090;-74
2022/08/30 02:58:02;;;;;;;12.18;6.07;;;17.10;99.90;;;;;;5060543;28;25060;-72
2022/08/30 03:00:28;;;;;;;8.43;6.32;;;17.10;99.90;;;;;;5060333;28;25083;-73
2022/08/30 03:02:54;;;;;;;10.32;6.38;;;17.10;99.90;;;;;;5055929;28;25056;-74
2022/08/30 03:05:19;;;;;;;14.48;6.57;;;17.10;99.90;;;;;;5057083;28;25057;-73
2022/08/30 03:07:46;;;;;;;8.82;6.25;;;17.10;99.90;;;;;;5062642;28;25078;-74
2022/08/30 03:10:13;;;;;;;11.57;6.60;;;17.10;99.90;;;;;;5062096;28;25145;-72
2022/08/30 03:12:40;;;;;;;12.80;6.88;;;17.10;99.90;;;;;;5060882;28;25062;-74
2022/08/30 03:15:09;;;;;;;11.85;7.22;;;17.10;99.90;;;;;;5048241;28;25066;-73
2022/08/30 03:17:34;;;;;;;14.93;7.75;;;17.10;99.90;;;;;;5061044;28;25119;-73
2022/08/30 03:20:01;;;;;;;11.10;6.40;;;17.10;99.90;;;;;;5046795;28;25112;-73
2022/08/30 03:22:27;;;;;;;10.13;7.18;;;17.10;99.90;;;;;;5047487;28;25193;-73
2022/08/30 03:24:58;;;;;;;10.77;7.32;;;17.00;99.90;;;;;;5055452;28;25090;-74
2022/08/30 03:27:24;;;;;;;15.63;7.75;;;17.00;99.90;;;;;;5057989;28;25082;-72
2022/08/30 03:29:49;;;;;;;12.50;7.13;;;17.00;99.90;;;;;;5061367;28;25105;-74
2022/08/30 03:32:15;;;;;;;10.68;6.68;;;17.00;99.90;;;;;;5064061;28;25058;-74
2022/08/30 03:34:40;;;;;;;12.02;7.53;;;17.10;99.90;;;;;;5052686;28;25076;-74
2022/08/30 03:37:06;;;;;;;11.30;7.43;;;17.10;99.90;;;;;;5057648;28;25140;-74
2022/08/30 03:39:31;;;;;;;14.23;8.23;;;17.10;99.90;;;;;;5053812;28;25087;-73
2022/08/30 03:41:57;;;;;;;12.23;7.22;;;17.10;99.90;;;;;;5047649;28;25089;-73
2022/08/30 03:44:23;;;;;;;10.75;6.97;;;17.10;99.90;;;;;;5063847;28;25061;-73
2022/08/30 03:46:49;;;;;;;15.70;7.70;;;17.10;99.90;;;;;;5065341;28;25061;-75
2022/08/30 03:49:15;;;;;;;12.50;7.25;;;17.10;99.90;;;;;;5056147;28;25073;-73
2022/08/30 03:51:41;;;;;;;13.82;7.70;;;17.10;99.90;;;;;;5055844;28;25059;-74
2022/08/30 03:54:07;;;;;;;11.18;6.65;;;17.00;99.90;;;;;;5046752;28;25079;-72
2022/08/30 03:56:32;;;;;;;12.52;8.23;;;16.90;99.90;;;;;;5058264;28;25064;-72
2022/08/30 03:58:58;;;;;;;17.02;7.40;;;17.00;99.90;;;;;;5051925;28;25072;-73
2022/08/30 04:01:23;;;;;;;10.32;7.30;;;17.00;99.90;;;;;;5058461;28;25086;-72
2022/08/30 04:03:49;;;;;;;10.80;7.20;;;17.00;99.90;;;;;;5055564;28;25065;-72
2022/08/30 04:06:15;;;;;;;14.65;8.75;;;16.90;99.90;;;;;;5049638;28;25055;-73
2022/08/30 04:08:42;;;;;;;17.80;8.10;;;16.80;99.90;;;;;;5057528;28;25082;-74
2022/08/30 04:11:07;;;;;;;15.88;8.45;;;16.80;99.90;;;;;;5052233;28;25051;-70
2022/08/30 04:13:33;;;;;;;14.43;8.45;;;16.90;99.90;;;;;;5065795;28;25112;-74
2022/08/30 04:15:59;;;;;;;11.77;7.78;;;16.80;99.90;;;;;;5058721;28;25077;-73
2022/08/30 04:18:24;;;;;;;13.07;8.30;;;16.70;99.90;;;;;;5063670;28;25152;-75
2022/08/30 04:20:51;;;;;;;11.35;7.75;;;16.80;99.90;;;;;;5055641;28;25087;-73
2022/08/30 04:23:17;;;;;;;13.13;8.40;;;16.80;99.90;;;;;;5062005;28;25127;-74
2022/08/30 04:25:43;;;;;;;17.63;9.02;;;16.80;99.90;;;;;;5065971;28;25135;-73
2022/08/30 04:28:09;;;;;;;13.02;8.25;;;16.80;99.90;;;;;;5069442;28;25175;-74
2022/08/30 04:30:39;;;;;;;12.95;8.40;;;16.80;99.90;;;;;;5071198;28;25061;-73
2022/08/30 04:33:04;;;;;;;15.77;8.45;;;16.90;99.90;;;;;;5064763;28;25474;-72
2022/08/30 04:35:30;;;;;;;14.07;9.20;;;16.90;99.90;;;;;;5065245;28;25094;-72
2022/08/30 04:37:55;;;;;;;12.25;8.23;;;16.90;99.90;;;;;;5063899;28;25053;-73
2022/08/30 04:40:21;;;;;;;15.05;8.63;;;16.90;99.90;;;;;;5072418;28;25108;-73
2022/08/30 04:42:47;;;;;;;13.18;8.73;;;16.80;99.90;;;;;;5082274;28;25068;-72
2022/08/30 04:45:15;;;;;;;16.75;9.00;;;16.80;99.90;;;;;;5066254;28;25156;-72
2022/08/30 04:47:42;;;;;;;12.98;8.50;;;16.80;99.90;;;;;;5074333;28;25077;-73
2022/08/30 04:50:09;;;;;;;14.23;9.65;;;16.80;99.90;;;;;;5054943;28;25071;-73
2022/08/30 04:52:35;;;;;;;16.25;8.05;;;16.80;99.90;;;;;;5062406;28;25062;-73
2022/08/30 04:55:01;;;;;;;18.08;9.23;;;16.90;99.90;;;;;;5062307;28;25059;-73
2022/08/30 04:57:27;;;;;;;13.02;8.48;;;17.00;99.90;;;;;;5056214;28;25148;-73
2022/08/30 04:59:53;;;;;;;13.70;8.85;;;16.90;99.90;;;;;;5046649;28;25071;-73
2022/08/30 05:02:19;;;;;;;14.07;10.10;;;16.90;99.90;;;;;;5052975;28;25074;-73
2022/08/30 05:07:32;;;;;;;15.80;10.65;;;16.80;99.90;;;;;;5045454;28;25158;-73
2022/08/30 05:09:57;;;;;;;16.52;8.85;;;16.80;99.90;;;;;;5059013;28;25055;-74
2022/08/30 05:12:23;;;;;;;16.48;9.27;;;16.80;99.90;;;;;;5060147;28;25132;-72
2022/08/30 05:14:49;;;;;;;16.52;9.75;;;16.80;99.90;;;;;;5052973;28;25080;-73
2022/08/30 05:17:15;;;;;;;15.15;8.65;;;16.90;99.90;;;;;;5051393;28;25060;-73
2022/08/30 05:19:41;;;;;;;15.68;9.20;;;16.90;99.90;;;;;;5047905;28;25073;-73
2022/08/30 05:22:07;;;;;;;14.60;9.52;;;16.90;99.90;;;;;;5056135;28;25104;-74
2022/08/30 05:24:34;;;;;;;12.80;8.68;;;16.90;99.90;;;;;;5055029;28;25149;-74
2022/08/30 05:26:59;;;;;;;16.58;9.63;;;17.00;99.90;;;;;;5062362;28;25072;-72
2022/08/30 05:29:25;;;;;;;16.77;9.60;;;17.10;99.90;;;;;;5077940;28;25072;-72
2022/08/30 05:31:50;;;;;;;17.88;10.43;;;17.10;99.90;;;;;;5060078;28;25085;-74
2022/08/30 05:34:16;;;;;;;16.33;10.07;;;17.00;99.90;;;;;;5081504;28;25073;-72
2022/08/30 05:36:42;;;;;;;15.85;9.63;;;16.90;99.90;;;;;;5070978;28;25097;-75
2022/08/30 05:39:09;;;;;;;15.25;10.48;;;16.90;99.90;;;;;;5056185;28;25053;-74
2022/08/30 05:41:35;;;;;;;17.77;9.52;;;16.90;99.90;;;;;;5062220;28;25050;-73
2022/08/30 05:44:02;;;;;;;16.85;11.02;;;16.90;99.90;;;;;;5065822;28;25064;-74
2022/08/30 05:46:31;;;;;;;14.35;9.50;;;16.90;99.90;;;;;;5068792;28;25130;-74
2022/08/30 05:49:00;;;;;;;15.82;10.10;;;17.00;99.90;;;;;;5065916;28;25086;-72
2022/08/30 05:51:27;;;;;;;21.02;10.38;;;16.90;99.90;;;;;;5063874;28;25053;-73
2022/08/30 05:53:54;;;;;;;17.20;10.35;;;16.80;99.90;;;;;;5051943;28;25050;-76
2022/08/30 05:56:23;;;;;;;16.85;10.57;;;16.80;99.90;;;;;;5055058;28;25067;-73
2022/08/30 05:58:49;;;;;;;17.08;10.38;;;16.80;99.90;;;;;;5047989;28;25068;-73
2022/08/30 06:01:22;;;;;;;16.60;10.38;;;16.90;99.90;;;;;;5064438;28;25108;-72
2022/08/30 06:03:48;;;;;;;15.18;10.85;;;17.00;99.90;;;;;;5056662;28;25075;-73
2022/08/30 06:06:14;;;;;;;18.27;9.88;;;16.90;99.90;;;;;;5053339;28;25142;-72
2022/08/30 06:08:41;;;;;;;14.13;10.23;;;16.90;99.90;;;;;;5046383;28;25100;-73
2022/08/30 06:11:07;;;;;;;22.83;11.25;;;16.90;99.90;;;;;;5045608;28;25067;-73
2022/08/30 06:13:32;;;;;;;21.95;10.52;;;16.90;99.90;;;;;;5046903;28;25061;-73
2022/08/30 06:15:58;;;;;;;16.70;11.18;;;17.00;99.90;;;;;;5049745;28;25066;-75
2022/08/30 06:18:23;;;;;;;18.38;10.73;;;16.90;99.90;;;;;;5055552;28;25124;-73
2022/08/30 06:20:50;;;;;;;16.45;10.60;;;17.00;99.90;;;;;;5055261;28;25149;-74
2022/08/30 06:23:18;;;;;;;15.55;10.35;;;17.00;99.90;;;;;;5046665;28;25078;-73
2022/08/30 06:25:45;;;;;;;18.75;11.05;;;17.10;99.90;;;;;;5050729;28;25082;-73
2022/08/30 06:28:11;;;;;;;15.77;10.60;;;17.10;99.90;;;;;;5050373;28;25084;-74
2022/08/30 06:30:39;;;;;;;15.95;10.55;;;17.10;99.90;;;;;;5047368;28;25149;-73
2022/08/30 06:33:05;;;;;;;13.90;9.35;;;17.10;99.90;;;;;;5050997;28;25150;-73
2022/08/30 06:35:31;;;;;;;13.30;9.25;;;17.20;99.90;;;;;;5053363;28;25065;-74
2022/08/30 06:37:57;;;;;;;13.98;9.10;;;17.20;99.90;;;;;;5046535;28;25137;-74
2022/08/30 06:40:23;;;;;;;15.48;9.25;;;17.30;99.90;;;;;;5047451;28;25094;-73
2022/08/30 06:42:50;;;;;;;12.63;9.15;;;17.30;99.90;;;;;;5050184;28;25100;-73
2022/08/30 06:45:17;;;;;;;15.48;9.18;;;17.20;99.90;;;;;;5044502;28;25056;-74
2022/08/30 06:47:43;;;;;;;11.30;8.10;;;17.20;99.90;;;;;;5048908;28;25176;-73
2022/08/30 06:50:11;;;;;;;20.30;8.80;;;17.30;99.90;;;;;;5046776;28;25148;-73
2022/08/30 06:52:36;;;;;;;12.93;8.55;;;17.30;99.90;;;;;;5048261;28;25130;-74
2022/08/30 06:55:02;;;;;;;11.07;8.68;;;17.20;99.90;;;;;;5046393;28;25099;-73
2022/08/30 06:57:28;;;;;;;13.00;7.72;;;17.30;99.90;;;;;;5054680;28;25125;-72
2022/08/30 06:59:55;;;;;;;17.38;7.88;;;17.30;99.90;;;;;;5057049;28;25070;-74
2022/08/30 07:02:21;;;;;;;12.65;7.32;;;17.40;99.90;;;;;;5047832;28;25060;-74
2022/08/30 07:04:47;;;;;;;8.80;6.85;;;17.50;99.90;;;;;;5045197;28;25152;-74
2022/08/30 07:07:13;;;;;;;11.63;7.00;;;17.50;99.90;;;;;;5048279;28;25062;-74
2022/08/30 07:09:42;;;;;;;17.40;7.55;;;17.40;99.90;;;;;;5060645;28;25070;-73
2022/08/30 07:12:08;;;;;;;14.10;7.45;;;17.50;99.90;;;;;;5061561;28;25077;-74
2022/08/30 07:14:34;;;;;;;13.45;7.75;;;17.50;99.90;;;;;;5048423;28;25132;-76
2022/08/30 07:16:59;;;;;;;11.13;6.30;;;17.50;99.90;;;;;;5048656;28;25068;-73
2022/08/30 07:19:25;;;;;;;11.70;6.63;;;17.60;99.90;;;;;;5057619;28;25059;-71
2022/08/30 07:21:50;;;;;;;11.95;6.78;;;17.60;99.90;;;;;;5086278;28;25056;-72
2022/08/30 07:24:17;;;;;;;9.60;7.25;;;17.70;99.90;;;;;;5067208;28;25061;-73
2022/08/30 07:26:47;;;;;;;7.82;5.57;;;17.70;99.90;;;;;;5051728;28;26209;-72
2022/08/30 07:29:13;;;;;;;8.95;6.60;;;17.70;99.90;;;;;;5052155;28;25131;-70
2022/08/30 07:31:39;;;;;;;8.48;5.85;;;17.80;99.90;;;;;;5052497;28;25149;-73
2022/08/30 07:34:06;;;;;;;9.55;5.78;;;17.70;99.90;;;;;;5050313;28;25079;-74
2022/08/30 07:36:32;;;;;;;10.80;5.45;;;17.90;99.90;;;;;;5058867;28;25061;-75
2022/08/30 07:38:58;;;;;;;7.80;5.80;;;17.90;99.90;;;;;;5061890;28;25055;-73
2022/08/30 07:41:27;;;;;;;8.88;5.20;;;18.00;99.90;;;;;;5059197;28;25146;-76
2022/08/30 07:43:53;;;;;;;5.95;5.03;;;18.00;99.90;;;;;;5049786;28;25071;-76
2022/08/30 07:46:20;;;;;;;7.13;4.78;;;18.10;99.90;;;;;;5057401;28;25058;-73
2022/08/30 07:48:46;;;;;;;5.85;4.45;;;18.20;99.90;;;;;;5056578;28;25072;-72
2022/08/30 07:51:14;;;;;;;7.10;4.78;;;18.20;99.90;;;;;;5055311;28;25099;-74
2022/08/30 07:53:40;;;;;;;5.80;4.30;;;18.20;99.90;;;;;;5059205;28;25139;-74
2022/08/30 07:56:05;;;;;;;7.93;4.82;;;18.20;99.90;;;;;;5075392;28;25087;-72
2022/08/30 07:58:32;;;;;;;7.90;4.90;;;18.20;99.90;;;;;;5065299;28;25083;-75
2022/08/30 08:00:58;;;;;;;8.57;6.22;;;18.30;99.90;;;;;;5066953;28;25050;-73
2022/08/30 08:03:28;;;;;;;6.88;5.07;;;18.30;99.90;;;;;;5055425;28;25091;-73
2022/08/30 08:05:54;;;;;;;7.25;5.00;;;18.50;99.90;;;;;;5053371;28;25064;-73
2022/08/30 08:08:21;;;;;;;9.20;5.07;;;18.70;99.90;;;;;;5060631;28;25046;-73
2022/08/30 08:10:46;;;;;;;9.90;4.18;;;18.90;99.90;;;;;;5052492;28;25048;-73
2022/08/30 08:13:12;;;;;;;5.53;4.32;;;19.10;99.90;;;;;;5061391;28;25058;-74
2022/08/30 08:15:38;;;;;;;6.70;4.43;;;19.20;99.90;;;;;;5055151;28;25152;-75
2022/08/30 08:18:04;;;;;;;7.25;4.20;;;19.40;99.90;;;;;;5061623;28;25078;-74
2022/08/30 08:20:31;;;;;;;9.65;4.55;;;19.50;99.90;;;;;;5060342;28;25145;-74
2022/08/30 08:22:57;;;;;;;11.27;4.80;;;19.70;99.90;;;;;;5066291;28;25066;-74
2022/08/30 08:25:23;;;;;;;6.40;4.07;;;19.90;99.90;;;;;;5055564;28;25152;-75
2022/08/30 08:27:50;;;;;;;3.88;3.47;;;19.90;99.90;;;;;;5066332;28;25105;-76
2022/08/30 08:30:20;;;;;;;4.45;3.58;;;19.70;99.90;;;;;;5058239;28;25139;-74
2022/08/30 08:32:47;;;;;;;5.03;3.08;;;19.60;99.90;;;;;;5060210;28;25109;-74
2022/08/30 08:35:13;;;;;;;5.50;3.50;;;19.60;99.90;;;;;;5061649;28;25171;-73
2022/08/30 08:37:39;;;;;;;4.88;3.47;;;19.70;99.90;;;;;;5067422;28;25085;-74
2022/08/30 08:40:06;;;;;;;3.72;3.03;;;19.80;99.90;;;;;;5065854;28;25142;-75
2022/08/30 08:42:31;;;;;;;3.72;2.53;;;19.80;99.90;;;;;;5057302;28;25104;-75
2022/08/30 08:45:07;;;;;;;4.05;2.85;;;20.00;99.90;;;;;;5059870;28;25170;-77
2022/08/30 08:47:36;;;;;;;4.28;3.08;;;20.20;99.90;;;;;;5055685;28;25046;-74
2022/08/30 08:50:07;;;;;;;4.88;2.65;;;20.10;99.90;;;;;;5049971;28;25065;-74
2022/08/30 08:55:31;;;;;;;2.78;2.22;;;20.10;99.90;;;;;;5070833;28;25073;-75
2022/08/30 08:57:57;;;;;;;6.30;3.03;;;20.30;99.90;;;;;;5074592;28;25004;-76
2022/08/30 09:00:22;;;;;;;2.47;2.00;;;20.30;99.90;;;;;;5076353;28;25057;-76
2022/08/30 09:03:00;;;;;;;4.68;2.53;;;20.50;99.90;;;;;;5077467;28;25156;-76
2022/08/30 09:05:30;;;;;;;4.32;2.00;;;20.60;99.90;;;;;;5087499;28;25066;-76
2022/08/30 09:08:03;;;;;;;1.90;1.80;;;20.60;99.90;;;;;;5070142;28;25078;-75
2022/08/30 09:10:31;;;;;;;6.43;1.92;;;20.80;99.90;;;;;;5058536;28;25067;-77
2022/08/30 09:12:57;;;;;;;2.65;2.03;;;20.90;99.90;;;;;;5061461;28;25058;-76
2022/08/30 09:15:26;;;;;;;4.13;2.45;;;21.20;99.90;;;;;;5053667;28;25054;-75
2022/08/30 09:17:57;;;;;;;2.70;1.95;;;21.20;99.90;;;;;;5062939;28;25123;-76
2022/08/30 09:20:29;;;;;;;3.90;1.80;;;21.20;99.90;;;;;;5050441;28;25150;-76
2022/08/30 09:22:55;;;;;;;5.10;2.08;;;21.00;99.90;;;;;;5046339;28;25116;-76
2022/08/30 09:25:33;;;;;;;2.95;2.15;;;21.10;99.90;;;;;;5057787;28;25138;-74
2022/08/30 09:28:14;;;;;;;4.07;2.40;;;21.00;99.90;;;;;;5065977;28;25087;-77
2022/08/30 09:31:01;;;;;;;3.88;2.30;;;20.80;99.90;;;;;;5052511;28;25056;-76
2022/08/30 09:33:27;;;;;;;6.25;3.75;;;20.90;99.90;;;;;;5056589;28;25057;-74
2022/08/30 09:35:53;;;;;;;7.57;2.30;;;20.90;99.90;;;;;;5052767;28;25058;-75
2022/08/30 09:38:34;;;;;;;2.90;1.92;;;21.10;99.90;;;;;;5047702;28;25056;-76
2022/08/30 09:41:28;;;;;;;3.83;1.55;;;21.10;99.90;;;;;;5055472;28;25127;-74
2022/08/30 09:44:11;;;;;;;2.65;1.85;;;21.20;99.90;;;;;;5052758;28;25151;-76
2022/08/30 09:46:49;;;;;;;3.88;2.08;;;21.30;99.90;;;;;;5054347;28;25072;-72
2022/08/30 09:49:28;;;;;;;5.40;1.80;;;21.30;99.90;;;;;;5054041;28;25063;-76
2022/08/30 09:52:16;;;;;;;3.05;1.77;;;21.40;99.90;;;;;;5049587;28;25226;-74
2022/08/30 09:55:13;;;;;;;2.47;1.65;;;21.50;99.90;;;;;;5056984;28;25092;-75
2022/08/30 09:57:59;;;;;;;2.60;1.83;;;21.60;99.90;;;;;;5053598;28;25060;-75
2022/08/30 10:00:27;;;;;;;4.05;1.70;;;21.30;99.90;;;;;;5046338;28;25047;-75
2022/08/30 10:03:30;;;;;;;2.53;1.77;;;21.40;99.90;;;;;;5066377;28;25051;-74
2022/08/30 10:06:14;;;;;;;1.75;1.55;;;21.60;99.90;;;;;;5056577;28;25057;-76
2022/08/30 10:09:01;;;;;;;6.47;3.25;;;21.40;99.90;;;;;;5049540;28;25105;-74
2022/08/30 10:11:52;;;;;;;4.45;1.52;;;21.20;99.90;;;;;;5054442;28;25060;-76
2022/08/30 10:14:32;;;;;;;4.00;1.73;;;21.30;99.90;;;;;;5064560;28;25077;-74
2022/08/30 10:17:33;;;;;;;2.17;1.15;;;21.50;99.90;;;;;;5055949;28;25159;-76
2022/08/30 10:20:17;;;;;;;2.33;1.40;;;21.40;99.90;;;;;;5046322;28;25079;-75
2022/08/30 10:22:55;;;;;;;2.13;1.40;;;21.60;99.90;;;;;;5047256;28;25137;-74
2022/08/30 10:25:29;;;;;;;6.53;1.67;;;21.70;99.90;;;;;;5054685;28;25089;-75
2022/08/30 10:28:03;;;;;;;3.08;1.55;;;21.70;99.90;;;;;;5055591;28;25058;-75
2022/08/30 10:30:32;;;;;;;3.22;1.60;;;21.80;99.90;;;;;;5065533;28;25119;-74
2022/08/30 10:33:05;;;;;;;2.90;1.33;;;21.90;99.90;;;;;;5051553;28;25103;-74
2022/08/30 10:35:43;;;;;;;1.48;1.35;;;21.80;99.90;;;;;;5051803;28;25070;-77
2022/08/30 10:38:33;;;;;;;3.97;1.70;;;22.00;99.90;;;;;;5062834;28;25149;-76
2022/08/30 10:41:26;;;;;;;3.80;1.35;;;22.30;99.90;;;;;;5060233;28;25123;-75
2022/08/30 10:44:14;;;;;;;4.97;1.13;;;22.20;99.90;;;;;;5034629;28;25089;-74
2022/08/30 10:47:07;;;;;;;3.20;1.45;;;22.20;99.90;;;;;;5057421;28;25124;-74
2022/08/30 10:49:38;;;;;;;2.17;1.30;;;22.30;99.90;;;;;;5059755;28;25065;-75
2022/08/30 10:52:22;;;;;;;4.15;1.60;;;22.30;99.90;;;;;;5054654;28;25051;-75
2022/08/30 10:55:04;;;;;;;3.15;1.48;;;22.20;99.90;;;;;;5055860;28;25055;-75
2022/08/30 10:57:30;;;;;;;2.97;1.10;;;22.10;99.90;;;;;;5057900;28;25072;-76
2022/08/30 11:00:13;;;;;;;3.55;1.33;;;22.20;99.90;;;;;;5061813;28;25122;-77
2022/08/30 11:02:49;;;;;;;3.55;1.15;;;22.20;99.90;;;;;;5059927;28;25069;-75
2022/08/30 11:05:20;;;;;;;2.40;1.00;;;22.20;99.90;;;;;;5058891;28;25079;-74
2022/08/30 11:08:05;;;;;;;5.65;1.50;;;22.50;99.90;;;;;;5054230;28;25065;-76
2022/08/30 11:10:56;;;;;;;3.40;1.50;;;22.70;99.90;;;;;;5071493;28;25057;-71
2022/08/30 11:13:25;;;;;;;1.45;0.93;;;22.70;99.90;;;;;;5072917;28;25094;-76
2022/08/30 11:16:14;;;;;;;1.40;1.20;;;22.40;99.90;;;;;;5085029;28;25061;-80
2022/08/30 11:18:52;;;;;;;3.28;1.15;;;22.90;99.90;;;;;;5073779;28;25067;-76
2022/08/30 11:21:33;;;;;;;4.53;1.65;;;23.10;99.90;;;;;;5068593;28;25055;-77
2022/08/30 11:24:09;;;;;;;4.30;1.60;;;23.20;99.90;;;;;;5076506;28;25097;-76
2022/08/30 11:26:43;;;;;;;1.13;1.02;;;23.20;99.90;;;;;;5082482;28;25099;-76
2022/08/30 11:29:40;;;;;;;3.90;1.30;;;23.40;99.90;;;;;;5078398;28;25088;-76
2022/08/30 11:32:12;;;;;;;2.17;0.98;;;23.60;99.90;;;;;;5061887;28;25083;-75
2022/08/30 11:34:44;;;;;;;1.10;1.00;;;23.80;99.90;;;;;;5060716;28;25066;-76
2022/08/30 11:37:29;;;;;;;6.35;1.10;;;24.10;99.90;;;;;;5047857;28;25084;-75
2022/08/30 11:39:58;;;;;;;3.83;1.88;;;24.00;99.90;;;;;;5074762;28;25068;-75
2022/08/30 11:42:28;;;;;;;3.05;1.10;;;24.50;99.90;;;;;;5087079;28;25103;-76
2022/08/30 11:45:23;;;;;;;4.20;1.20;;;24.40;99.90;;;;;;5078783;28;25068;-76
2022/08/30 11:47:50;;;;;;;1.85;1.35;;;23.80;99.90;;;;;;5078475;28;25056;-76
2022/08/30 11:50:24;;;;;;;2.05;1.33;;;23.30;99.90;;;;;;5057655;28;25103;-76
2022/08/30 11:53:07;;;;;;;4.35;1.25;;;23.20;99.90;;;;;;5048040;28;25094;-77
2022/08/30 11:55:45;;;;;;;2.88;1.38;;;23.30;99.90;;;;;;5053003;28;25093;-74
2022/08/30 11:58:18;;;;;;;2.10;1.17;;;23.20;99.90;;;;;;5053155;28;25066;-75
2022/08/30 12:00:46;;;;;;;1.50;1.40;;;23.10;99.90;;;;;;5056085;28;25165;-74
2022/08/30 12:03:15;;;;;;;2.63;1.13;;;23.10;99.90;;;;;;5051540;28;25063;-75
2022/08/30 12:05:44;;;;;;;2.05;1.25;;;23.10;99.90;;;;;;5053562;28;25077;-76
2022/08/30 12:08:23;;;;;;;3.80;1.30;;;22.90;99.90;;;;;;5055490;28;25070;-74
2022/08/30 12:10:53;;;;;;;9.10;1.90;;;23.00;99.90;;;;;;5049100;28;25130;-75
2022/08/30 12:13:37;;;;;;;6.47;1.20;;;23.60;99.90;;;;;;5060036;28;25096;-76
2022/08/30 12:16:02;;;;;;;1.70;1.40;;;23.70;99.90;;;;;;5049567;28;25313;-76
2022/08/30 12:18:44;;;;;;;3.08;1.20;;;23.90;99.90;;;;;;5065454;28;25072;-74
2022/08/30 12:21:23;;;;;;;;;;;24.00;99.50;;;;;;5065386;28;28110;-76
2022/08/30 12:23:48;;;;;;;3.85;1.50;;;24.40;94.90;;;;;;5069236;28;25086;-73
2022/08/30 12:26:38;;;;;;;4.10;1.27;;;24.40;84.90;;;;;;5064505;28;25086;-75
2022/08/30 12:29:08;;;;;;;2.97;1.30;;;24.70;85.50;;;;;;5061090;28;25091;-80
2022/08/30 12:31:58;;;;;;;2.60;1.20;;;25.10;65.90;;;;;;5057528;28;25061;-76
2022/08/30 12:34:30;;;;;;;3.67;1.25;;;24.50;47.20;;;;;;5061614;28;25127;-76
2022/08/30 12:36:57;;;;;;;1.90;1.00;;;24.60;52.80;;;;;;5073601;28;25065;-77
2022/08/30 12:39:29;;;;;;;3.78;1.50;;;24.90;53.40;;;;;;5066223;28;25097;-76
2022/08/30 12:42:08;;;;;;;3.22;1.27;;;25.30;39.10;;;;;;5072292;28;25065;-78
2022/08/30 12:44:34;;;;;;;3.28;0.95;;;24.60;35.50;;;;;;5061860;28;25135;-76
2022/08/30 12:47:04;;;;;;;1.13;0.90;;;24.90;44.30;;;;;;5055942;28;25076;-77
2022/08/30 12:49:34;;;;;;;6.25;1.50;;;25.00;37.50;;;;;;5060699;28;25104;-75
2022/08/30 12:52:17;;;;;;;1.27;1.00;;;24.90;31.00;;;;;;5062768;28;25139;-76
2022/08/30 12:54:44;;;;;;;2.53;1.20;;;25.00;38.00;;;;;;5059034;28;25061;-76
2022/08/30 12:57:11;;;;;;;2.22;1.38;;;24.80;35.70;;;;;;5054180;28;25102;-75
2022/08/30 12:59:45;;;;;;;2.63;1.38;;;24.80;32.50;;;;;;5065211;28;25153;-76
2022/08/30 13:02:15;;;;;;;3.55;1.27;;;24.60;42.70;;;;;;5062825;28;25075;-74